createdAt,value
2018-10-01T00:00:53.837Z,6.27
2018-10-01T00:05:57.719Z,6.07
2018-10-01T00:11:01.501Z,5.17
2018-10-01T00:16:06.232Z,6.57
2018-10-01T00:21:15.351Z,5.80
2018-10-01T00:26:19.218Z,6.23
2018-10-01T00:31:22.910Z,6.53
2018-10-01T00:36:26.788Z,6.60
2018-10-01T00:41:30.552Z,6.37
2018-10-01T00:46:34.232Z,6.20
2018-10-01T00:51:38.415Z,6.20
2018-10-01T00:56:42.208Z,6.37
2018-10-01T01:01:46.002Z,6.40
2018-10-01T01:06:49.818Z,6.17
2018-10-01T01:11:53.836Z,5.73
2018-10-01T01:16:57.512Z,5.60
2018-10-01T01:22:01.235Z,4.83
2018-10-01T01:27:04.926Z,5.20
2018-10-01T01:32:14.012Z,4.70
2018-10-01T01:37:18.200Z,4.30
2018-10-01T01:42:22.256Z,4.50
2018-10-01T01:47:26.348Z,5.10
2018-10-01T01:52:30.052Z,4.57
2018-10-01T01:57:33.832Z,3.93
2018-10-01T02:02:37.473Z,4.17
2018-10-01T02:07:41.442Z,3.77
2018-10-01T02:12:45.684Z,4.20
2018-10-01T02:17:49.526Z,4.33
2018-10-01T02:22:53.421Z,4.17
2018-10-01T02:27:57.110Z,4.07
2018-10-01T02:33:00.719Z,3.70
2018-10-01T02:38:05.015Z,4.60
2018-10-01T02:43:09.089Z,3.83
2018-10-01T02:48:13.411Z,4.40
2018-10-01T02:53:22.289Z,4.00
2018-10-01T02:58:26.126Z,4.00
2018-10-01T03:03:29.840Z,4.00
2018-10-01T03:08:33.625Z,3.53
2018-10-01T03:13:37.346Z,3.50
2018-10-01T03:18:41.425Z,3.40
2018-10-01T03:23:45.120Z,3.30
2018-10-01T03:28:48.777Z,3.37
2018-10-01T03:33:52.559Z,3.53
2018-10-01T03:38:56.160Z,3.27
2018-10-01T03:43:59.901Z,3.07
2018-10-01T03:49:03.612Z,3.40
2018-10-01T03:54:07.298Z,3.43
2018-10-01T03:59:11.013Z,3.10
2018-10-01T04:04:14.808Z,3.27
2018-10-01T04:09:18.882Z,3.30
2018-10-01T04:14:22.596Z,3.07
2018-10-01T04:19:26.405Z,3.00
2018-10-01T04:24:30.171Z,3.20
2018-10-01T04:29:34.016Z,2.50
2018-10-01T04:34:38.057Z,2.50
2018-10-01T04:39:41.759Z,2.63
2018-10-01T04:44:45.547Z,3.10
2018-10-01T04:49:49.565Z,2.40
2018-10-01T04:54:53.616Z,2.60
2018-10-01T04:59:57.708Z,2.63
2018-10-01T05:05:01.539Z,3.13
2018-10-01T05:10:05.607Z,2.60
2018-10-01T05:15:09.263Z,2.17
2018-10-01T05:20:13.092Z,2.47
2018-10-01T05:25:17.373Z,2.23
2018-10-01T05:30:21.145Z,2.20
2018-10-01T05:35:24.848Z,2.47
2018-10-01T05:40:28.801Z,2.23
2018-10-01T05:45:32.548Z,1.90
2018-10-01T05:50:36.297Z,2.57
2018-10-01T05:55:40.073Z,2.70
2018-10-01T06:00:43.832Z,3.13
2018-10-01T06:05:47.693Z,2.67
2018-10-01T06:10:51.441Z,2.17
2018-10-01T06:15:55.872Z,2.20
2018-10-01T06:20:59.902Z,2.70
2018-10-01T06:26:03.597Z,2.50
2018-10-01T06:31:07.474Z,2.47
2018-10-01T06:36:11.456Z,2.13
2018-10-01T06:41:15.117Z,2.70
2018-10-01T06:46:18.879Z,2.40
2018-10-01T06:51:22.650Z,2.00
2018-10-01T06:56:26.385Z,2.13
2018-10-01T07:01:30.310Z,2.83
2018-10-01T07:06:34.179Z,2.67
2018-10-01T07:11:38.689Z,2.00
2018-10-01T07:16:42.557Z,2.47
2018-10-01T07:21:46.666Z,1.80
2018-10-01T07:26:50.496Z,1.97
2018-10-01T07:31:54.220Z,1.83
2018-10-01T07:36:58.046Z,1.67
2018-10-01T07:42:02.199Z,1.80
2018-10-01T07:47:06.126Z,1.80
2018-10-01T07:52:09.808Z,1.40
2018-10-01T07:57:13.761Z,1.80
2018-10-01T08:02:17.345Z,1.80
2018-10-01T08:07:21.085Z,1.30
2018-10-01T08:12:25.033Z,1.30
2018-10-01T08:17:28.970Z,1.33
2018-10-01T08:22:32.877Z,1.70
2018-10-01T08:27:36.449Z,1.53
2018-10-01T08:32:40.318Z,1.60
2018-10-01T08:37:44.084Z,1.47
2018-10-01T08:42:47.786Z,1.10
2018-10-01T08:47:51.643Z,1.30
2018-10-01T08:53:07.923Z,1.30
2018-10-01T08:58:11.857Z,1.37
2018-10-01T09:03:15.669Z,1.07
2018-10-01T09:08:22.676Z,1.00
2018-10-01T09:13:26.468Z,1.40
2018-10-01T09:18:35.627Z,1.57
2018-10-01T09:23:40.830Z,1.30
2018-10-01T09:28:44.753Z,1.30
2018-10-01T09:33:48.853Z,1.17
2018-10-01T09:39:00.627Z,1.33
2018-10-01T09:44:04.549Z,1.10
2018-10-01T09:49:15.528Z,1.03
2018-10-01T09:54:19.919Z,0.80
2018-10-01T09:59:31.053Z,0.90
2018-10-01T10:04:34.829Z,1.10
2018-10-01T10:09:38.447Z,0.80
2018-10-01T10:14:42.326Z,1.27
2018-10-01T10:19:46.460Z,1.03
2018-10-01T10:24:50.129Z,1.20
2018-10-01T10:29:54.545Z,1.30
2018-10-01T10:34:58.495Z,1.20
2018-10-01T10:40:02.311Z,1.07
2018-10-01T10:45:06.623Z,0.93
2018-10-01T10:50:10.789Z,0.97
2018-10-01T10:55:14.792Z,0.83
2018-10-01T11:00:18.801Z,0.90
2018-10-01T11:05:22.950Z,0.50
2018-10-01T11:10:27.330Z,0.80
2018-10-01T11:15:31.352Z,1.27
2018-10-01T11:20:35.762Z,0.63
2018-10-01T11:25:40.150Z,0.40
2018-10-01T11:30:43.988Z,0.70
2018-10-01T11:35:49.085Z,0.70
2018-10-01T11:40:52.835Z,1.00
2018-10-01T11:45:56.629Z,1.10
2018-10-01T11:51:02.165Z,0.87
2018-10-01T11:56:05.977Z,1.00
2018-10-01T12:01:10.310Z,0.80
2018-10-01T12:06:13.962Z,0.70
2018-10-01T12:11:18.065Z,0.90
2018-10-01T12:16:21.803Z,1.10
2018-10-01T12:21:26.293Z,1.20
2018-10-01T12:26:30.176Z,1.07
2018-10-01T12:31:34.539Z,1.20
2018-10-01T12:36:38.687Z,1.87
2018-10-01T12:41:42.648Z,1.60
2018-10-01T12:46:46.476Z,1.40
2018-10-01T12:51:50.581Z,1.83
2018-10-01T12:56:54.971Z,2.23
2018-10-01T13:01:58.890Z,2.40
2018-10-01T13:07:03.256Z,1.60
2018-10-01T13:12:07.014Z,2.33
2018-10-01T13:17:10.863Z,1.40
2018-10-01T13:22:15.232Z,1.77
2018-10-01T13:27:19.072Z,1.57
2018-10-01T13:32:23.072Z,1.20
2018-10-01T13:37:27.533Z,1.87
2018-10-01T13:42:31.986Z,1.87
2018-10-01T13:47:36.010Z,1.43
2018-10-01T13:52:40.019Z,2.03
2018-10-01T13:57:44.166Z,2.40
2018-10-01T14:02:48.119Z,2.17
2018-10-01T14:07:52.511Z,1.93
2018-10-01T14:12:56.554Z,1.77
2018-10-01T14:18:01.603Z,1.97
2018-10-01T14:23:05.438Z,1.53
2018-10-01T14:28:09.555Z,1.13
2018-10-01T14:33:13.334Z,0.90
2018-10-01T14:38:17.719Z,1.40
2018-10-01T14:43:21.576Z,1.00
2018-10-01T14:48:25.552Z,1.30
2018-10-01T14:53:30.303Z,1.10
2018-10-01T14:58:34.236Z,1.00
2018-10-01T15:03:37.937Z,0.70
2018-10-01T15:08:41.984Z,1.10
2018-10-01T15:13:46.033Z,1.23
2018-10-01T15:18:50.047Z,0.80
2018-10-01T15:23:54.232Z,1.00
2018-10-01T15:28:58.959Z,1.10
2018-10-01T15:34:02.548Z,0.87
2018-10-01T15:39:08.880Z,1.00
2018-10-01T15:44:12.754Z,0.83
2018-10-01T15:49:16.600Z,1.13
2018-10-01T15:54:21.097Z,1.23
2018-10-01T15:59:24.888Z,1.27
2018-10-01T16:04:28.982Z,1.30
2018-10-01T16:09:36.601Z,0.90
2018-10-01T16:14:40.419Z,1.13
2018-10-01T16:19:44.346Z,1.73
2018-10-01T16:24:48.308Z,1.77
2018-10-01T16:29:51.983Z,1.60
2018-10-01T16:34:56.049Z,1.67
2018-10-01T16:39:59.756Z,2.10
2018-10-01T16:45:03.490Z,1.00
2018-10-01T16:50:07.672Z,0.70
2018-10-01T16:55:11.753Z,0.60
2018-10-01T17:00:15.551Z,0.77
2018-10-01T17:05:19.565Z,1.00
2018-10-01T17:10:23.726Z,1.07
2018-10-01T17:15:28.071Z,1.37
2018-10-01T17:20:31.746Z,1.90
2018-10-01T17:25:35.773Z,2.10
2018-10-01T17:30:40.119Z,1.67
2018-10-01T17:35:44.086Z,2.40
2018-10-01T17:40:48.091Z,1.73
2018-10-01T17:45:52.087Z,2.70
2018-10-01T17:50:56.042Z,1.57
2018-10-01T17:56:00.476Z,1.50
2018-10-01T18:01:04.557Z,1.30
2018-10-01T18:06:08.291Z,2.10
2018-10-01T18:11:12.068Z,1.60
2018-10-01T18:16:15.763Z,1.70
2018-10-01T18:21:19.481Z,1.80
2018-10-01T18:26:23.082Z,1.80
2018-10-01T18:31:26.771Z,1.90
2018-10-01T18:36:30.420Z,1.90
2018-10-01T18:41:34.179Z,1.90
2018-10-01T18:46:37.961Z,2.00
2018-10-01T18:51:41.760Z,3.77
2018-10-01T18:56:45.821Z,2.87
2018-10-01T19:01:49.581Z,2.40
2018-10-01T19:06:53.254Z,2.60
2018-10-01T19:11:57.054Z,2.00
2018-10-01T19:17:01.253Z,2.00
2018-10-01T19:22:04.971Z,2.10
2018-10-01T19:27:09.281Z,1.80
2018-10-01T19:32:13.219Z,1.80
2018-10-01T19:37:17.210Z,2.30
2018-10-01T19:42:21.638Z,2.10
2018-10-01T19:47:26.268Z,2.37
2018-10-01T19:52:30.505Z,2.00
2018-10-01T19:57:34.606Z,2.37
2018-10-01T20:02:38.648Z,2.57
2018-10-01T20:07:42.818Z,2.77
2018-10-01T20:12:46.816Z,2.93
2018-10-01T20:17:50.789Z,3.10
2018-10-01T20:22:54.891Z,2.40
2018-10-01T20:27:59.065Z,2.70
2018-10-01T20:33:03.468Z,2.50
2018-10-01T20:38:07.620Z,2.20
2018-10-01T20:43:11.607Z,2.43
2018-10-01T20:48:15.353Z,2.73
2018-10-01T20:53:19.453Z,2.73
2018-10-01T20:58:23.585Z,2.90
2018-10-01T21:03:27.666Z,2.80
2018-10-01T21:08:38.966Z,3.40
2018-10-01T21:13:43.000Z,2.53
2018-10-01T21:18:46.864Z,3.00
2018-10-01T21:23:50.829Z,3.30
2018-10-01T21:29:12.606Z,2.57
2018-10-01T21:34:16.585Z,2.87
2018-10-01T21:39:38.534Z,2.70
2018-10-01T21:44:42.919Z,3.20
2018-10-01T21:49:46.957Z,2.90
2018-10-01T21:54:51.511Z,2.90
2018-10-01T21:59:55.400Z,2.83
2018-10-01T22:04:59.276Z,2.80
2018-10-01T22:10:03.525Z,2.53
2018-10-01T22:15:07.936Z,2.60
2018-10-01T22:20:11.614Z,2.83
2018-10-01T22:25:15.789Z,2.37
2018-10-01T22:30:19.429Z,2.27
2018-10-01T22:35:23.107Z,2.67
2018-10-01T22:40:26.763Z,2.77
2018-10-01T22:45:30.572Z,3.57
2018-10-01T22:50:34.605Z,4.10
2018-10-01T22:55:38.559Z,3.97
2018-10-01T23:00:42.265Z,4.80
2018-10-01T23:05:45.923Z,4.47
2018-10-01T23:10:50.570Z,4.53
2018-10-01T23:15:54.251Z,3.93
2018-10-01T23:20:58.096Z,4.13
2018-10-01T23:26:01.794Z,4.70
2018-10-01T23:31:06.317Z,4.13
2018-10-01T23:36:10.195Z,3.80
2018-10-01T23:41:13.930Z,3.80
2018-10-01T23:46:17.695Z,4.80
2018-10-01T23:51:21.421Z,4.67
2018-10-01T23:56:25.202Z,5.00
